createdAt,value
2019-01-18T00:00:44.699Z,97953.87
2019-01-18T00:08:48.129Z,97969.58
2019-01-18T00:14:13.100Z,97984.03
2019-01-18T00:16:43.520Z,97997.64
2019-01-18T00:19:13.843Z,97999.22
2019-01-18T00:21:44.146Z,97999.48
2019-01-18T00:24:16.355Z,98000.03
2019-01-18T00:26:46.574Z,98002.65
2019-01-18T00:29:16.778Z,98005.02
2019-01-18T00:31:46.981Z,98013.13
2019-01-18T00:34:17.451Z,98008.67
2019-01-18T00:36:47.665Z,98018.64
2019-01-18T00:39:17.892Z,98013.12
2019-01-18T00:41:48.087Z,98010.23
2019-01-18T00:44:20.335Z,98018.88
2019-01-18T00:46:50.640Z,98016.80
2019-01-18T00:52:43.914Z,98022.05
2019-01-18T00:55:16.597Z,98031.99
2019-01-18T00:57:46.926Z,98027.80
2019-01-18T01:00:19.716Z,98033.57
2019-01-18T01:02:50.022Z,98043.53
2019-01-18T01:05:34.754Z,98043.56
2019-01-18T01:10:48.172Z,98046.16
2019-01-18T01:13:18.365Z,98052.45
2019-01-18T01:15:48.690Z,98049.56
2019-01-18T01:18:18.935Z,98045.14
2019-01-18T01:20:49.126Z,98046.42
2019-01-18T01:23:19.350Z,98047.45
2019-01-18T01:25:49.780Z,98053.78
2019-01-18T01:28:20.057Z,98059.53
2019-01-18T01:30:50.267Z,98065.58
2019-01-18T01:33:20.442Z,98067.71
2019-01-18T01:35:50.840Z,98074.22
2019-01-18T01:38:40.294Z,98079.22
2019-01-18T01:41:10.609Z,98083.67
2019-01-18T01:43:42.722Z,98085.77
2019-01-18T01:46:13.007Z,98084.22
2019-01-18T01:48:43.240Z,98085.25
2019-01-18T01:51:32.426Z,98088.66
2019-01-18T01:54:02.917Z,98101.27
2019-01-18T01:56:33.129Z,98101.53
2019-01-18T01:59:03.343Z,98107.02
2019-01-18T02:01:33.719Z,98097.56
2019-01-18T02:04:03.909Z,98102.81
2019-01-18T02:06:40.614Z,98109.63
2019-01-18T02:09:10.817Z,98115.94
2019-01-18T02:11:41.129Z,98115.91
2019-01-18T02:14:11.326Z,98113.88
2019-01-18T02:16:47.405Z,98121.42
2019-01-18T02:19:17.655Z,98122.20
2019-01-18T02:21:47.872Z,98134.02
2019-01-18T02:24:18.043Z,98132.92
2019-01-18T02:26:48.259Z,98139.47
2019-01-18T02:29:18.475Z,98130.57
2019-01-18T02:31:48.718Z,98132.16
2019-01-18T02:34:18.905Z,98135.03
2019-01-18T02:36:49.267Z,98148.91
2019-01-18T02:39:19.556Z,98154.45
2019-01-18T02:42:08.858Z,98158.38
2019-01-18T02:44:39.118Z,98164.61
2019-01-18T02:47:09.688Z,98162.30
2019-01-18T02:50:01.198Z,98171.73
2019-01-18T02:52:31.406Z,98167.78
2019-01-18T02:55:01.690Z,98169.63
2019-01-18T02:57:32.036Z,98167.81
2019-01-18T03:00:04.860Z,98177.20
2019-01-18T03:02:39.669Z,98171.40
2019-01-18T03:05:10.972Z,98180.91
2019-01-18T03:07:41.496Z,98175.61
2019-01-18T03:10:15.937Z,98176.38
2019-01-18T03:12:46.352Z,98175.11
2019-01-18T03:15:16.808Z,98192.13
2019-01-18T03:17:47.031Z,98188.41
2019-01-18T03:23:23.804Z,98193.95
2019-01-18T03:25:54.060Z,98196.34
2019-01-18T03:28:24.281Z,98197.09
2019-01-18T03:30:54.651Z,98206.75
2019-01-18T03:33:24.852Z,98205.69
2019-01-18T03:35:55.089Z,98213.11
2019-01-18T03:38:25.347Z,98204.08
2019-01-18T03:40:57.524Z,98216.38
2019-01-18T03:43:27.747Z,98215.28
2019-01-18T03:48:50.723Z,98220.86
2019-01-18T03:51:20.972Z,98219.12
2019-01-18T03:53:51.287Z,98228.36
2019-01-18T03:56:21.502Z,98222.16
2019-01-18T03:58:51.727Z,98222.36
2019-01-18T04:01:21.960Z,98226.81
2019-01-18T04:06:35.011Z,98239.20
2019-01-18T04:09:18.112Z,98232.98
2019-01-18T04:11:48.347Z,98249.65
2019-01-18T04:14:18.598Z,98239.96
2019-01-18T04:16:51.104Z,98244.92
2019-01-18T04:19:21.286Z,98249.41
2019-01-18T04:21:51.508Z,98256.45
2019-01-18T04:24:21.795Z,98257.98
2019-01-18T04:26:52.069Z,98269.81
2019-01-18T04:29:22.276Z,98264.52
2019-01-18T04:31:52.474Z,98274.98
2019-01-18T04:34:22.757Z,98274.06
2019-01-18T04:36:52.957Z,98275.81
2019-01-18T04:39:23.351Z,98281.37
2019-01-18T04:41:53.746Z,98272.89
2019-01-18T04:44:23.962Z,98277.84
2019-01-18T04:46:54.162Z,98285.73
2019-01-18T04:49:24.348Z,98288.33
2019-01-18T04:51:54.573Z,98295.44
2019-01-18T04:54:24.960Z,98299.42
2019-01-18T04:56:55.231Z,98313.63
2019-01-18T04:59:27.419Z,98313.55
2019-01-18T05:01:57.639Z,98317.67
2019-01-18T05:07:30.477Z,98329.53
2019-01-18T05:10:00.973Z,98352.25
2019-01-18T05:12:31.255Z,98376.39
2019-01-18T05:15:01.435Z,98385.42
2019-01-18T05:20:53.600Z,98396.83
2019-01-18T05:23:23.892Z,98411.72
2019-01-18T05:25:54.166Z,98420.94
2019-01-18T05:28:24.471Z,98430.11
2019-01-18T05:30:54.844Z,98438.83
2019-01-18T05:33:32.307Z,98447.41
2019-01-18T05:36:02.536Z,98455.77
2019-01-18T05:47:20.044Z,98484.62
2019-01-18T05:49:50.290Z,98488.69
2019-01-18T05:52:39.919Z,98503.53
2019-01-18T05:55:29.443Z,98515.02
2019-01-18T05:57:59.736Z,98527.28
2019-01-18T06:00:55.412Z,98530.53
2019-01-18T06:03:23.320Z,98534.31
2019-01-18T06:05:55.555Z,98531.72
2019-01-18T06:08:25.956Z,98548.23
2019-01-18T06:11:08.371Z,98549.41
2019-01-18T06:13:38.675Z,98547.28
2019-01-18T06:16:08.963Z,98552.80
2019-01-18T06:18:39.227Z,98563.94
2019-01-18T06:21:09.428Z,98568.11
2019-01-18T06:23:39.793Z,98571.53
2019-01-18T06:26:10.117Z,98577.96
2019-01-18T06:28:40.346Z,98579.33
2019-01-18T06:31:29.709Z,98580.64
2019-01-18T06:36:44.063Z,98590.94
2019-01-18T06:39:14.761Z,98596.09
2019-01-18T06:41:51.331Z,98593.12
2019-01-18T06:44:21.708Z,98592.11
2019-01-18T06:46:52.691Z,98597.98
2019-01-18T06:49:23.156Z,98605.47
2019-01-18T06:51:53.638Z,98614.93
2019-01-18T06:54:23.837Z,98615.03
2019-01-18T06:59:35.670Z,98624.65
2019-01-18T07:02:05.886Z,98622.78
2019-01-18T07:04:40.734Z,98631.31
2019-01-18T07:07:14.109Z,98641.66
2019-01-18T07:12:28.073Z,98652.25
2019-01-18T07:18:00.280Z,98660.30
2019-01-18T07:20:50.845Z,98669.52
2019-01-18T07:23:40.193Z,98668.45
2019-01-18T07:26:12.749Z,98676.50
2019-01-18T07:31:46.586Z,98686.91
2019-01-18T07:34:16.896Z,98688.08
2019-01-18T07:39:42.003Z,98706.92
2019-01-18T07:42:12.638Z,98711.05
2019-01-18T07:44:42.906Z,98720.66
2019-01-18T07:47:13.381Z,98721.86
2019-01-18T07:49:43.726Z,98728.45
2019-01-18T07:52:16.155Z,98728.29
2019-01-18T07:57:40.756Z,98756.05
2019-01-18T08:00:14.967Z,98764.89
2019-01-18T08:02:45.916Z,98776.64
2019-01-18T08:08:28.989Z,98781.56
2019-01-18T08:13:51.305Z,98800.92
2019-01-18T08:16:21.866Z,98795.25
2019-01-18T08:18:52.253Z,98803.52
2019-01-18T08:21:22.890Z,98816.66
2019-01-18T08:23:53.690Z,98817.98
2019-01-18T08:29:23.552Z,98840.64
2019-01-18T08:31:54.183Z,98837.84
2019-01-18T08:37:28.936Z,98848.87
2019-01-18T08:40:01.056Z,98859.02
2019-01-18T08:42:33.891Z,98862.37
2019-01-18T08:45:04.322Z,98871.48
2019-01-18T08:47:35.502Z,98876.70
2019-01-18T08:50:09.329Z,98884.56
2019-01-18T08:52:39.988Z,98892.09
2019-01-18T08:55:10.992Z,98892.50
2019-01-18T08:57:42.322Z,98903.41
2019-01-18T09:00:15.809Z,98916.53
2019-01-18T09:05:37.753Z,98933.52
2019-01-18T09:08:27.226Z,98929.03
2019-01-18T09:11:02.630Z,98935.42
2019-01-18T09:13:32.968Z,98952.64
2019-01-18T09:16:03.798Z,98954.47
2019-01-18T09:18:36.417Z,98961.10
2019-01-18T09:21:25.967Z,98971.75
2019-01-18T09:24:08.959Z,98978.86
2019-01-18T09:32:39.729Z,99001.45
2019-01-18T09:35:11.685Z,99005.39
2019-01-18T09:38:01.120Z,99014.29
2019-01-18T09:40:33.180Z,99013.62
2019-01-18T09:43:06.765Z,99021.80
2019-01-18T09:45:37.184Z,99025.09
2019-01-18T09:48:10.914Z,99029.36
2019-01-18T09:50:43.140Z,99031.40
2019-01-18T10:02:12.048Z,99047.19
2019-01-18T10:14:09.933Z,99064.17
2019-01-18T10:22:13.995Z,99075.48
2019-01-18T10:24:45.033Z,99072.23
2019-01-18T10:33:12.513Z,99083.07
2019-01-18T10:35:45.375Z,99082.34
2019-01-18T10:38:18.071Z,99074.02
2019-01-18T10:41:02.487Z,99076.60
2019-01-18T10:46:15.027Z,99080.92
2019-01-18T10:48:45.459Z,99086.20
2019-01-18T10:51:16.444Z,99097.12
2019-01-18T10:53:46.835Z,99095.08
2019-01-18T10:56:19.461Z,99094.11
2019-01-18T11:02:07.243Z,99107.30
2019-01-18T11:04:41.568Z,99104.88
2019-01-18T11:07:14.130Z,99106.69
2019-01-18T11:09:45.064Z,99104.30
2019-01-18T11:12:15.584Z,99104.73
2019-01-18T11:21:31.312Z,99113.29
2019-01-18T11:24:41.445Z,99108.13
2019-01-18T11:27:11.951Z,99124.37
2019-01-18T11:32:36.653Z,99130.77
2019-01-18T11:35:08.121Z,99131.19
2019-01-18T11:37:38.536Z,99131.31
2019-01-18T11:40:21.049Z,99129.97
2019-01-18T11:45:47.362Z,99132.10
2019-01-18T11:48:38.954Z,99129.16
2019-01-18T11:56:49.342Z,99142.15
2019-01-18T12:02:26.065Z,99143.52
2019-01-18T12:07:39.227Z,99150.54
2019-01-18T12:10:12.351Z,99154.43
2019-01-18T12:12:45.068Z,99157.84
2019-01-18T12:15:15.612Z,99152.76
2019-01-18T12:18:32.525Z,99155.28
2019-01-18T12:23:49.326Z,99162.00
2019-01-18T12:26:23.855Z,99170.38
2019-01-18T12:29:06.709Z,99166.09
2019-01-18T12:34:34.055Z,99171.37
2019-01-18T12:37:17.523Z,99180.58
2019-01-18T12:40:01.879Z,99185.13
2019-01-18T12:45:20.394Z,99188.34
2019-01-18T12:50:44.198Z,99191.72
2019-01-18T12:53:29.449Z,99186.16
2019-01-18T12:55:59.884Z,99188.03
2019-01-18T12:58:30.175Z,99189.02
2019-01-18T13:06:35.216Z,99189.91
2019-01-18T13:15:05.651Z,99188.95
2019-01-18T13:18:02.817Z,99193.45
2019-01-18T13:20:33.132Z,99201.59
2019-01-18T13:23:22.652Z,99206.55
2019-01-18T13:25:55.232Z,99206.91
2019-01-18T13:28:26.624Z,99207.42
2019-01-18T13:30:57.334Z,99210.62
2019-01-18T13:33:27.578Z,99210.84
2019-01-18T13:36:16.831Z,99207.93
2019-01-18T13:38:49.460Z,99208.91
2019-01-18T13:41:20.694Z,99205.78
2019-01-18T13:43:53.579Z,99217.77
2019-01-18T13:46:23.899Z,99216.95
2019-01-18T13:48:56.692Z,99219.30
2019-01-18T13:54:18.425Z,99221.13
2019-01-18T13:56:49.053Z,99215.53
2019-01-18T14:02:24.100Z,99219.36
2019-01-18T14:05:07.680Z,99221.16
2019-01-18T14:07:58.608Z,99223.72
2019-01-18T14:13:25.431Z,99230.89
2019-01-18T14:15:57.280Z,99228.32
2019-01-18T14:18:27.859Z,99226.46
2019-01-18T14:21:22.198Z,99223.94
2019-01-18T14:23:53.283Z,99234.11
2019-01-18T14:26:23.540Z,99240.22
2019-01-18T14:28:53.763Z,99237.67
2019-01-18T14:31:23.944Z,99243.34
2019-01-18T14:33:54.128Z,99242.20
2019-01-18T14:36:24.328Z,99250.84
2019-01-18T14:39:15.741Z,99249.00
2019-01-18T14:47:27.046Z,99252.14
2019-01-18T14:49:57.552Z,99248.18
2019-01-18T14:52:28.029Z,99253.08
2019-01-18T15:03:32.239Z,99259.42
2019-01-18T15:06:24.131Z,99253.23
2019-01-18T15:08:54.541Z,99260.08
2019-01-18T15:14:27.309Z,99263.70
2019-01-18T15:16:57.582Z,99267.83
2019-01-18T15:19:30.227Z,99263.84
2019-01-18T15:22:00.762Z,99267.76
2019-01-18T15:24:31.273Z,99272.84
2019-01-18T15:29:45.682Z,99275.15
2019-01-18T15:32:37.099Z,99278.55
2019-01-18T15:35:09.585Z,99272.40
2019-01-18T15:37:39.860Z,99275.02
2019-01-18T15:40:12.452Z,99275.00
2019-01-18T15:42:45.788Z,99283.94
2019-01-18T15:48:19.671Z,99287.90
2019-01-18T15:50:49.891Z,99281.48
2019-01-18T15:58:47.044Z,99294.55
2019-01-18T16:04:07.579Z,99290.45
2019-01-18T16:06:50.756Z,99291.62
2019-01-18T16:15:01.663Z,99289.27
2019-01-18T16:17:34.038Z,99287.77
2019-01-18T16:20:06.436Z,99283.57
2019-01-18T16:22:37.203Z,99281.12
2019-01-18T16:28:15.958Z,99282.91
2019-01-18T16:30:46.403Z,99280.70
2019-01-18T16:33:35.719Z,99290.88
2019-01-18T16:39:10.439Z,99275.20
2019-01-18T16:41:41.120Z,99285.44
2019-01-18T16:47:55.381Z,99286.27
2019-01-18T16:50:26.260Z,99289.74
2019-01-18T16:53:10.214Z,99290.94
2019-01-18T16:55:43.391Z,99291.30
2019-01-18T16:58:13.632Z,99292.77
2019-01-18T17:00:45.106Z,99298.03
2019-01-18T17:03:15.609Z,99299.91
2019-01-18T17:05:59.155Z,99305.94
2019-01-18T17:11:13.488Z,99311.37
2019-01-18T17:14:04.986Z,99307.63
2019-01-18T17:19:17.386Z,99311.22
2019-01-18T17:21:47.671Z,99313.16
2019-01-18T17:24:17.986Z,99313.02
2019-01-18T17:26:48.394Z,99317.07
2019-01-18T17:29:18.678Z,99318.59
2019-01-18T17:31:49.039Z,99314.90
2019-01-18T17:34:19.328Z,99319.41
2019-01-18T17:36:54.451Z,99323.72
2019-01-18T17:39:37.236Z,99327.38
2019-01-18T17:42:16.467Z,99325.48
2019-01-18T17:45:25.208Z,99323.83
2019-01-18T17:48:33.914Z,99322.97
2019-01-18T17:51:45.393Z,99324.00
2019-01-18T17:54:27.678Z,99328.53
2019-01-18T17:57:30.360Z,99328.63
2019-01-18T18:00:33.536Z,99328.79
2019-01-18T18:03:44.112Z,99332.15
2019-01-18T18:06:38.377Z,99330.96
2019-01-18T18:12:47.979Z,99333.09
2019-01-18T18:15:58.157Z,99338.87
2019-01-18T18:19:08.664Z,99343.08
2019-01-18T18:22:25.578Z,99337.91
2019-01-18T18:25:21.029Z,99341.27
2019-01-18T18:28:03.462Z,99340.09
2019-01-18T18:30:57.720Z,99347.39
2019-01-18T18:34:06.674Z,99351.41
2019-01-18T18:37:13.292Z,99346.63
2019-01-18T18:39:52.205Z,99349.60
2019-01-18T18:42:47.673Z,99343.98
2019-01-18T18:45:50.829Z,99350.16
2019-01-18T18:48:59.459Z,99349.79
2019-01-18T18:52:08.635Z,99359.20
2019-01-18T18:55:19.310Z,99355.41
2019-01-18T18:58:27.887Z,99358.83
2019-01-18T19:01:36.540Z,99354.48
2019-01-18T19:04:31.163Z,99358.83
2019-01-18T19:07:27.169Z,99361.20
2019-01-18T19:10:21.927Z,99354.08
2019-01-18T19:13:16.613Z,99347.02
2019-01-18T19:16:25.263Z,99352.40
2019-01-18T19:19:35.424Z,99351.28
2019-01-18T19:22:32.242Z,99356.38
2019-01-18T19:28:41.007Z,99355.63
2019-01-18T19:31:49.380Z,99355.20
2019-01-18T19:34:57.948Z,99352.38
2019-01-18T19:38:06.502Z,99358.73
2019-01-18T19:41:15.249Z,99356.73
2019-01-18T19:44:23.794Z,99353.57
2019-01-18T19:47:18.919Z,99360.00
2019-01-18T19:50:27.556Z,99358.17
2019-01-18T19:53:37.437Z,99357.01
2019-01-18T19:56:39.661Z,99361.35
2019-01-18T19:59:48.214Z,99362.08
2019-01-18T20:02:56.914Z,99362.58
2019-01-18T20:12:42.129Z,99366.48
2019-01-18T20:15:50.780Z,99368.10
2019-01-18T20:18:59.142Z,99373.72
2019-01-18T20:21:55.895Z,99362.38
2019-01-18T20:25:04.795Z,99365.89
2019-01-18T20:28:13.433Z,99366.83
2019-01-18T20:30:56.614Z,99373.23
2019-01-18T20:37:09.188Z,99382.17
2019-01-18T20:39:53.282Z,99387.67
2019-01-18T20:42:57.955Z,99390.98
2019-01-18T20:49:28.282Z,99388.16
2019-01-18T20:52:36.684Z,99392.88
2019-01-18T20:55:46.104Z,99389.95
2019-01-18T20:59:01.247Z,99388.76
2019-01-18T21:02:09.966Z,99388.65
2019-01-18T21:05:18.693Z,99391.45
2019-01-18T21:08:27.295Z,99392.97
2019-01-18T21:11:35.973Z,99394.77
2019-01-18T21:14:38.773Z,99393.86
2019-01-18T21:17:47.144Z,99400.90
2019-01-18T21:20:39.500Z,99403.19
2019-01-18T21:23:23.010Z,99402.47
2019-01-18T21:29:37.723Z,99407.58
2019-01-18T21:32:46.574Z,99404.48
2019-01-18T21:35:55.186Z,99410.89
2019-01-18T21:41:57.556Z,99414.20
2019-01-18T21:51:02.463Z,99411.32
2019-01-18T21:53:59.314Z,99412.41
2019-01-18T21:57:07.637Z,99409.00
2019-01-18T22:00:15.946Z,99407.52
2019-01-18T22:03:24.553Z,99403.91
2019-01-18T22:06:34.837Z,99417.73
2019-01-18T22:09:43.424Z,99413.62
2019-01-18T22:12:52.106Z,99415.94
2019-01-18T22:16:00.726Z,99419.92
2019-01-18T22:19:09.297Z,99412.10
2019-01-18T22:22:17.916Z,99411.39
2019-01-18T22:25:21.421Z,99406.86
2019-01-18T22:28:30.020Z,99411.70
2019-01-18T22:31:23.565Z,99415.82
2019-01-18T22:34:13.336Z,99412.09
2019-01-18T22:40:30.497Z,99399.91
2019-01-18T22:43:39.880Z,99405.42
2019-01-18T22:46:58.778Z,99404.08
2019-01-18T22:50:07.917Z,99407.30
2019-01-18T22:53:04.391Z,99407.13
2019-01-18T22:56:00.931Z,99408.51
2019-01-18T23:02:24.530Z,99402.80
2019-01-18T23:05:18.624Z,99401.53
2019-01-18T23:08:27.356Z,99402.30
2019-01-18T23:11:14.332Z,99397.80
2019-01-18T23:14:22.925Z,99406.56
2019-01-18T23:17:31.440Z,99410.63
2019-01-18T23:20:46.144Z,99406.27
2019-01-18T23:23:56.094Z,99402.25
2019-01-18T23:27:04.788Z,99399.07
2019-01-18T23:30:17.415Z,99399.24
2019-01-18T23:33:26.064Z,99397.33
2019-01-18T23:39:32.795Z,99401.02
2019-01-18T23:42:41.373Z,99403.62
2019-01-18T23:49:08.199Z,99406.05
2019-01-18T23:52:18.075Z,99402.95
2019-01-18T23:55:15.417Z,99396.19
